Time;durP1;ratioP1;P1;durP2;ratioP2;P2;SDS_P1;SDS_P2;PMS_P1;PMS_P2;Temp;Humidity;BMP_temperature;BMP_pressure;BME280_temperature;BME280_humidity;BME280_pressure;Samples;Min_cycle;Max_cycle;Signal;HPM_P1;HPM_P2
2023/03/10 00:00:44;;;;;;;17.50;7.75;;;1.40;99.90;;;;;;6212899;23;20013;-88
2023/03/10 00:03:10;;;;;;;15.80;8.00;;;1.40;99.90;;;;;;6185793;23;20052;-85
2023/03/10 00:05:37;;;;;;;16.02;7.22;;;1.40;99.90;;;;;;6211893;23;20008;-85
2023/03/10 00:08:03;;;;;;;15.63;7.60;;;1.40;99.90;;;;;;6161094;23;20055;-85
2023/03/10 00:10:28;;;;;;;18.70;8.82;;;1.40;99.90;;;;;;6184792;23;20378;-84
2023/03/10 00:12:54;;;;;;;16.13;8.27;;;1.40;99.90;;;;;;6185074;23;20017;-86
2023/03/10 00:15:20;;;;;;;15.88;7.97;;;1.40;99.90;;;;;;6160293;23;20434;-84
2023/03/10 00:17:48;;;;;;;16.73;8.27;;;1.40;99.90;;;;;;6185520;23;20017;-83
2023/03/10 00:20:15;;;;;;;16.75;8.30;;;1.40;99.90;;;;;;6184957;23;20013;-83
2023/03/10 00:22:40;;;;;;;16.08;7.95;;;1.40;99.90;;;;;;6184587;23;20096;-83
2023/03/10 00:25:07;;;;;;;17.02;9.77;;;1.40;99.90;;;;;;6212425;23;20041;-84
2023/03/10 00:27:33;;;;;;;15.80;8.55;;;1.40;99.90;;;;;;6213455;23;20020;-85
2023/03/10 00:29:59;;;;;;;17.00;8.93;;;1.40;99.90;;;;;;6187910;23;20342;-85
2023/03/10 00:32:25;;;;;;;15.43;8.13;;;1.40;99.90;;;;;;6214206;23;20497;-85
2023/03/10 00:34:50;;;;;;;15.80;8.25;;;1.40;99.90;;;;;;6213852;23;20005;-86
2023/03/10 00:37:17;;;;;;;16.38;8.48;;;1.40;99.90;;;;;;6186725;23;20023;-84
2023/03/10 00:39:43;;;;;;;16.52;8.43;;;1.40;99.90;;;;;;6186478;23;20040;-85
2023/03/10 00:42:09;;;;;;;17.05;8.82;;;1.40;99.90;;;;;;6187472;23;20016;-85
2023/03/10 00:44:34;;;;;;;16.50;8.10;;;1.40;99.90;;;;;;6213892;23;20012;-85
2023/03/10 00:47:00;;;;;;;17.00;8.55;;;1.40;99.90;;;;;;6187797;23;20319;-86
2023/03/10 00:49:26;;;;;;;16.30;8.52;;;1.40;99.90;;;;;;6187361;23;20063;-85
2023/03/10 00:51:51;;;;;;;17.33;9.52;;;1.40;99.90;;;;;;6186504;23;20052;-86
2023/03/10 00:54:17;;;;;;;16.13;8.57;;;1.40;99.90;;;;;;6186835;23;20048;-86
2023/03/10 00:56:43;;;;;;;15.82;8.07;;;1.40;99.90;;;;;;6213085;23;20020;-85
2023/03/10 00:59:10;;;;;;;17.77;8.85;;;1.40;99.90;;;;;;6214631;23;20312;-85
2023/03/10 01:01:39;;;;;;;15.07;7.80;;;1.40;99.90;;;;;;6187326;23;20021;-86
2023/03/10 01:04:07;;;;;;;17.25;9.32;;;1.40;99.90;;;;;;6188532;23;20016;-86
2023/03/10 01:06:33;;;;;;;17.50;9.43;;;1.40;99.90;;;;;;6214132;23;20036;-86
2023/03/10 01:09:00;;;;;;;19.73;10.80;;;1.40;99.90;;;;;;6188021;23;20063;-88
2023/03/10 01:11:28;;;;;;;18.08;9.40;;;1.40;99.90;;;;;;6162750;23;20079;-87
2023/03/10 01:13:57;;;;;;;19.52;10.25;;;1.40;99.90;;;;;;6221468;23;20051;-86
2023/03/10 01:16:23;;;;;;;17.17;8.85;;;1.40;99.90;;;;;;6194978;23;20040;-87
2023/03/10 01:18:49;;;;;;;17.65;9.48;;;1.40;99.90;;;;;;6215944;23;20012;-87
2023/03/10 01:21:19;;;;;;;16.77;8.50;;;1.40;99.90;;;;;;6217619;23;20022;-87
2023/03/10 01:23:45;;;;;;;19.33;10.98;;;1.40;99.90;;;;;;6214206;23;20059;-87
2023/03/10 01:26:11;;;;;;;18.63;10.23;;;1.40;99.90;;;;;;6187217;23;20016;-88
2023/03/10 01:28:36;;;;;;;17.42;8.93;;;1.40;99.90;;;;;;6213953;23;20119;-88
2023/03/10 01:31:04;;;;;;;19.15;9.38;;;1.40;99.90;;;;;;6213793;23;20004;-89
2023/03/10 01:33:30;;;;;;;17.08;8.35;;;1.40;99.90;;;;;;6225908;23;20033;-88
2023/03/10 01:35:55;;;;;;;18.38;9.32;;;1.40;99.90;;;;;;6193831;23;20443;-87
2023/03/10 01:38:21;;;;;;;17.52;8.85;;;1.40;99.90;;;;;;6214280;23;20009;-87
2023/03/10 01:40:49;;;;;;;18.27;9.80;;;1.40;99.90;;;;;;6213967;23;20016;-89
2023/03/10 01:43:26;;;;;;;16.38;8.88;;;1.40;99.90;;;;;;6162393;23;20028;-88
2023/03/10 01:45:52;;;;;;;18.92;9.77;;;1.40;99.90;;;;;;6214058;23;20369;-88
2023/03/10 01:48:20;;;;;;;16.10;8.88;;;1.40;99.90;;;;;;6213326;23;20058;-89
2023/03/10 01:50:50;;;;;;;17.20;8.73;;;1.40;99.90;;;;;;6187582;23;20062;-88
2023/03/10 01:53:18;;;;;;;16.70;8.93;;;1.40;99.90;;;;;;6188942;23;20322;-87
2023/03/10 01:55:51;;;;;;;15.60;7.78;;;1.40;99.90;;;;;;6190291;23;20023;-89
2023/03/10 01:58:21;;;;;;;16.73;8.77;;;1.40;99.90;;;;;;6215104;23;20066;-88
2023/03/10 02:00:48;;;;;;;15.65;7.82;;;1.40;99.90;;;;;;6162564;23;20023;-88
2023/03/10 02:03:28;;;;;;;15.52;7.95;;;1.40;99.90;;;;;;6187765;23;20036;-89
2023/03/10 02:05:58;;;;;;;16.88;8.23;;;1.40;99.90;;;;;;6188445;23;20008;-87
2023/03/10 02:08:28;;;;;;;16.60;8.45;;;1.40;99.90;;;;;;6185638;23;20017;-88
2023/03/10 02:10:54;;;;;;;15.65;8.00;;;1.40;99.90;;;;;;6186085;23;20012;-88
2023/03/10 02:13:19;;;;;;;14.20;7.53;;;1.40;99.90;;;;;;6185284;23;20012;-90
2023/03/10 02:15:45;;;;;;;15.57;8.77;;;1.40;99.90;;;;;;6185936;23;20079;-88
2023/03/10 02:18:13;;;;;;;15.30;7.35;;;1.40;99.90;;;;;;6212312;23;20115;-87
2023/03/10 02:21:09;;;;;;;15.20;7.10;;;1.40;99.90;;;;;;6186303;23;20136;-87
2023/03/10 02:23:47;;;;;;;16.30;7.93;;;1.40;99.90;;;;;;6158743;23;20410;-87
2023/03/10 02:26:33;;;;;;;16.45;8.35;;;1.40;99.90;;;;;;6185678;23;20063;-86
2023/03/10 02:29:02;;;;;;;16.85;8.98;;;1.40;99.90;;;;;;6186476;23;20013;-87
2023/03/10 02:31:29;;;;;;;15.57;7.60;;;1.40;99.90;;;;;;6211733;23;20066;-88
2023/03/10 02:33:55;;;;;;;16.05;9.02;;;1.40;99.90;;;;;;6213433;23;20485;-90
2023/03/10 02:36:23;;;;;;;14.18;8.27;;;1.40;99.90;;;;;;6212870;23;20055;-90
2023/03/10 02:38:48;;;;;;;14.68;7.85;;;1.40;99.90;;;;;;6212582;23;20016;-87
2023/03/10 02:41:25;;;;;;;15.98;7.88;;;1.40;99.90;;;;;;6212389;23;20012;-87
2023/03/10 02:43:52;;;;;;;15.95;8.55;;;1.40;99.90;;;;;;6213535;23;20013;-87
2023/03/10 02:46:19;;;;;;;16.05;8.52;;;1.40;99.90;;;;;;6213045;23;20448;-88
2023/03/10 02:48:45;;;;;;;16.83;8.57;;;1.40;99.90;;;;;;6187522;23;20440;-88
2023/03/10 02:51:24;;;;;;;14.75;7.95;;;1.40;99.90;;;;;;6186923;23;20021;-88
2023/03/10 02:53:50;;;;;;;16.27;8.38;;;1.40;99.90;;;;;;6211839;23;20020;-88
2023/03/10 02:56:16;;;;;;;17.05;8.77;;;1.40;99.90;;;;;;6211942;23;20008;-86
2023/03/10 02:58:42;;;;;;;15.63;9.05;;;1.40;99.90;;;;;;6185771;23;20074;-88
2023/03/10 03:01:07;;;;;;;17.48;8.80;;;1.40;99.90;;;;;;6185734;23;20016;-87
2023/03/10 03:03:34;;;;;;;17.30;9.52;;;1.40;99.90;;;;;;6211978;23;20052;-87
2023/03/10 03:05:59;;;;;;;16.10;8.65;;;1.40;99.90;;;;;;6212699;23;20012;-86
2023/03/10 03:08:25;;;;;;;18.00;9.18;;;1.40;99.90;;;;;;6159310;23;20075;-87
2023/03/10 03:10:51;;;;;;;17.13;9.75;;;1.40;99.90;;;;;;6184705;23;20315;-87
2023/03/10 03:13:17;;;;;;;19.20;11.07;;;1.40;99.90;;;;;;6211383;23;20019;-86
2023/03/10 03:15:42;;;;;;;18.33;10.55;;;1.40;99.90;;;;;;6185532;23;20020;-87
2023/03/10 03:18:08;;;;;;;20.83;10.38;;;1.40;99.90;;;;;;6185776;23;20021;-86
2023/03/10 03:20:36;;;;;;;19.88;11.02;;;1.40;99.90;;;;;;6184781;23;20036;-86
2023/03/10 03:23:02;;;;;;;19.13;10.55;;;1.40;99.90;;;;;;6212024;23;20020;-87
2023/03/10 03:25:29;;;;;;;20.35;10.55;;;1.40;99.90;;;;;;6160265;23;20016;-85
2023/03/10 03:27:56;;;;;;;18.75;10.40;;;1.40;99.90;;;;;;6211771;23;20330;-86
2023/03/10 03:30:26;;;;;;;21.77;10.48;;;1.40;99.90;;;;;;6184950;23;20350;-87
2023/03/10 03:32:54;;;;;;;21.83;10.57;;;1.50;99.90;;;;;;6185611;23;20016;-86
2023/03/10 03:35:23;;;;;;;20.73;11.23;;;1.50;99.90;;;;;;6185039;23;20020;-86
2023/03/10 03:37:52;;;;;;;20.98;10.50;;;1.50;99.90;;;;;;6185076;23;20020;-85
2023/03/10 03:40:19;;;;;;;20.98;10.95;;;1.40;99.90;;;;;;6182872;23;20013;-86
2023/03/10 03:42:48;;;;;;;21.02;10.52;;;1.50;99.90;;;;;;6185702;23;20012;-86
2023/03/10 03:45:16;;;;;;;20.23;10.65;;;1.50;99.90;;;;;;6184807;23;20088;-86
2023/03/10 03:47:42;;;;;;;19.50;10.35;;;1.50;99.90;;;;;;6160169;23;20013;-85
2023/03/10 03:50:10;;;;;;;19.23;10.30;;;1.50;99.90;;;;;;6212042;23;20405;-86
2023/03/10 03:52:36;;;;;;;18.27;9.75;;;1.40;99.90;;;;;;6210312;23;20013;-84
2023/03/10 03:55:02;;;;;;;19.67;11.00;;;1.50;99.90;;;;;;6185388;23;20012;-86
2023/03/10 03:57:28;;;;;;;20.45;9.93;;;1.50;99.90;;;;;;6211324;23;20446;-86
2023/03/10 03:59:54;;;;;;;17.83;9.75;;;1.50;99.90;;;;;;6185641;23;20163;-85
2023/03/10 04:02:19;;;;;;;19.48;10.32;;;1.40;99.90;;;;;;6213462;23;20052;-87
2023/03/10 04:04:46;;;;;;;16.23;8.80;;;1.50;99.90;;;;;;6186860;23;20434;-85
2023/03/10 04:07:12;;;;;;;16.67;8.63;;;1.50;99.90;;;;;;6160713;23;20051;-85
2023/03/10 04:09:38;;;;;;;17.17;8.15;;;1.50;99.90;;;;;;6187202;23;20008;-86
2023/03/10 04:12:05;;;;;;;16.48;8.35;;;1.40;99.90;;;;;;6187363;23;20020;-88
2023/03/10 04:14:31;;;;;;;16.50;9.40;;;1.40;99.90;;;;;;6186796;23;20511;-85
2023/03/10 04:16:56;;;;;;;16.27;9.00;;;1.40;99.90;;;;;;6187263;23;20095;-85
2023/03/10 04:19:22;;;;;;;15.18;7.45;;;1.40;99.90;;;;;;6185835;23;20426;-85
2023/03/10 04:21:48;;;;;;;16.48;8.18;;;1.40;99.90;;;;;;6161838;23;20525;-84
2023/03/10 04:24:13;;;;;;;16.92;8.48;;;1.40;99.90;;;;;;6213777;23;20016;-85
2023/03/10 04:26:39;;;;;;;15.68;7.30;;;1.40;99.90;;;;;;6187414;23;20016;-85
2023/03/10 04:29:05;;;;;;;15.38;7.18;;;1.40;99.90;;;;;;6187753;23;20017;-85
2023/03/10 04:31:30;;;;;;;15.40;8.05;;;1.40;99.90;;;;;;6213484;23;20631;-85
2023/03/10 04:33:56;;;;;;;17.38;7.57;;;1.40;99.90;;;;;;6186734;23;20329;-84
2023/03/10 04:36:22;;;;;;;15.02;7.45;;;1.40;99.90;;;;;;6212785;23;20096;-84
2023/03/10 04:38:48;;;;;;;14.05;6.85;;;1.40;99.90;;;;;;6186278;23;20012;-84
2023/03/10 04:41:14;;;;;;;14.00;7.25;;;1.50;99.90;;;;;;6213868;23;20054;-83
2023/03/10 04:43:39;;;;;;;13.50;6.90;;;1.50;99.90;;;;;;6187143;23;20047;-85
2023/03/10 04:46:05;;;;;;;14.18;6.78;;;1.50;99.90;;;;;;6214648;23;20009;-83
2023/03/10 04:48:31;;;;;;;15.70;6.45;;;1.50;99.90;;;;;;6213112;23;20434;-84
2023/03/10 04:51:02;;;;;;;15.82;7.75;;;1.50;99.90;;;;;;6214049;23;20016;-84
2023/03/10 04:53:29;;;;;;;14.13;6.65;;;1.50;99.90;;;;;;6212842;23;20021;-84
2023/03/10 04:55:55;;;;;;;12.48;6.28;;;1.40;99.90;;;;;;6213711;23;20009;-83
2023/03/10 04:58:21;;;;;;;13.70;6.40;;;1.50;99.90;;;;;;6192800;23;20027;-84
2023/03/10 05:00:48;;;;;;;12.52;6.15;;;1.40;99.90;;;;;;6221965;23;20009;-84
2023/03/10 05:03:14;;;;;;;12.63;6.20;;;1.50;99.90;;;;;;6215895;23;20020;-83
2023/03/10 05:05:39;;;;;;;13.73;6.82;;;1.50;99.90;;;;;;6214682;23;20015;-84
2023/03/10 05:08:06;;;;;;;14.93;6.35;;;1.50;99.90;;;;;;6188140;23;20024;-84
2023/03/10 05:10:31;;;;;;;14.15;6.85;;;1.40;99.90;;;;;;6187632;23;20024;-84
2023/03/10 05:12:57;;;;;;;14.30;6.28;;;1.50;99.90;;;;;;6214647;23;20331;-84
2023/03/10 05:15:23;;;;;;;14.48;7.25;;;1.40;99.90;;;;;;6213070;23;20507;-84
2023/03/10 05:17:49;;;;;;;15.00;7.15;;;1.50;99.90;;;;;;6212459;23;20012;-84
2023/03/10 05:20:14;;;;;;;13.98;7.03;;;1.50;99.90;;;;;;6161905;23;20019;-84
2023/03/10 05:22:41;;;;;;;13.90;6.93;;;1.50;99.90;;;;;;6213358;23;20009;-84
2023/03/10 05:25:09;;;;;;;14.27;6.85;;;1.50;99.90;;;;;;6213543;23;20028;-84
2023/03/10 05:27:36;;;;;;;14.18;6.97;;;1.40;99.90;;;;;;6213213;23;20016;-84
2023/03/10 05:30:06;;;;;;;13.82;6.53;;;1.40;99.90;;;;;;6187187;23;20016;-84
2023/03/10 05:32:36;;;;;;;15.20;6.88;;;1.40;99.90;;;;;;6184997;23;20067;-84
2023/03/10 05:35:03;;;;;;;14.95;8.00;;;1.50;99.90;;;;;;6213715;23;20400;-83
2023/03/10 05:37:29;;;;;;;13.75;7.10;;;1.50;99.90;;;;;;6211997;23;20019;-84
2023/03/10 05:39:55;;;;;;;13.95;6.35;;;1.50;99.90;;;;;;6213514;23;20039;-84
2023/03/10 05:42:21;;;;;;;14.68;7.35;;;1.40;99.90;;;;;;6185906;23;20017;-84
2023/03/10 05:44:46;;;;;;;14.40;8.02;;;1.40;99.90;;;;;;6187015;23;20042;-84
2023/03/10 05:47:17;;;;;;;14.75;8.07;;;1.40;99.90;;;;;;6161237;23;20075;-83
2023/03/10 05:49:43;;;;;;;13.32;6.55;;;1.40;99.90;;;;;;6213559;23;20009;-83
2023/03/10 05:52:09;;;;;;;12.50;6.55;;;1.40;99.90;;;;;;6186349;23;20346;-86
2023/03/10 05:54:35;;;;;;;13.95;6.78;;;1.40;99.90;;;;;;6161900;23;20096;-84
2023/03/10 05:57:01;;;;;;;14.77;8.05;;;1.40;99.90;;;;;;6212121;23;20233;-85
2023/03/10 05:59:26;;;;;;;15.38;8.15;;;1.50;99.90;;;;;;6213252;23;20509;-85
2023/03/10 06:01:52;;;;;;;14.60;7.65;;;1.50;99.90;;;;;;6210283;23;20052;-87
2023/03/10 06:04:18;;;;;;;14.95;7.95;;;1.50;99.90;;;;;;6185478;23;20013;-86
2023/03/10 06:06:44;;;;;;;15.02;7.70;;;1.50;99.90;;;;;;6213574;23;20439;-85
2023/03/10 06:09:09;;;;;;;15.43;8.10;;;1.40;99.90;;;;;;6213349;23;20066;-86
2023/03/10 06:11:35;;;;;;;16.02;7.88;;;1.40;99.90;;;;;;6184528;23;20020;-87
2023/03/10 06:14:00;;;;;;;16.45;8.38;;;1.40;99.90;;;;;;6213437;23;20021;-86
2023/03/10 06:16:26;;;;;;;18.25;8.55;;;1.40;99.90;;;;;;6184610;23;20024;-86
2023/03/10 06:18:54;;;;;;;18.80;10.68;;;1.40;99.90;;;;;;6211746;23;20044;-84
2023/03/10 06:21:19;;;;;;;16.52;8.50;;;1.50;99.90;;;;;;6185126;23;20023;-85
2023/03/10 06:23:45;;;;;;;18.08;9.80;;;1.40;99.90;;;;;;6211875;23;20079;-85
2023/03/10 06:26:13;;;;;;;18.65;9.85;;;1.40;99.90;;;;;;6184166;23;20008;-84
2023/03/10 06:28:40;;;;;;;20.02;9.40;;;1.40;99.90;;;;;;6212367;23;20043;-88
2023/03/10 06:31:14;;;;;;;19.70;9.27;;;1.50;99.90;;;;;;6184454;23;20013;-88
2023/03/10 06:33:39;;;;;;;19.45;9.23;;;1.50;99.90;;;;;;6185104;23;20017;-87
2023/03/10 06:36:09;;;;;;;21.25;10.50;;;1.50;99.90;;;;;;6186931;23;20021;-86
2023/03/10 06:38:34;;;;;;;22.52;11.10;;;1.50;99.90;;;;;;6185517;23;20017;-87
2023/03/10 06:41:00;;;;;;;23.25;12.90;;;1.50;99.90;;;;;;6210864;23;20017;-87
2023/03/10 06:43:26;;;;;;;25.83;13.50;;;1.50;99.90;;;;;;6184346;23;20067;-87
2023/03/10 06:45:51;;;;;;;25.13;13.18;;;1.50;99.90;;;;;;6211774;23;20019;-85
2023/03/10 06:48:17;;;;;;;22.52;11.35;;;1.50;99.90;;;;;;6184373;23;20008;-86
2023/03/10 06:50:46;;;;;;;24.30;12.75;;;1.50;99.90;;;;;;6184958;23;20331;-88
2023/03/10 06:53:12;;;;;;;25.65;12.95;;;1.50;99.90;;;;;;6185135;23;20012;-87
2023/03/10 06:55:38;;;;;;;27.13;14.05;;;1.50;99.90;;;;;;6182762;23;20434;-84
2023/03/10 06:58:04;;;;;;;24.65;13.13;;;1.50;99.90;;;;;;6210320;23;20373;-84
2023/03/10 07:00:30;;;;;;;27.27;13.32;;;1.60;99.90;;;;;;6210714;23;20083;-85
2023/03/10 07:02:56;;;;;;;29.25;13.43;;;1.60;99.90;;;;;;6185352;23;20355;-88
2023/03/10 07:05:23;;;;;;;27.83;14.70;;;1.60;99.90;;;;;;6209937;23;20021;-87
2023/03/10 07:07:49;;;;;;;27.52;13.90;;;1.60;99.90;;;;;;6183133;23;20013;-86
2023/03/10 07:10:15;;;;;;;28.33;13.25;;;1.60;99.90;;;;;;6210475;23;20457;-84
2023/03/10 07:12:42;;;;;;;28.45;14.52;;;1.60;99.90;;;;;;6211020;23;20017;-86
2023/03/10 07:15:08;;;;;;;28.80;14.77;;;1.60;99.90;;;;;;6210565;23;20066;-85
2023/03/10 07:17:33;;;;;;;25.25;12.65;;;1.70;99.90;;;;;;6210645;23;20016;-87
2023/03/10 07:19:59;;;;;;;28.45;13.10;;;1.70;99.90;;;;;;6210155;23;20031;-86
2023/03/10 07:22:25;;;;;;;30.63;14.23;;;1.70;99.90;;;;;;6183985;23;20497;-84
2023/03/10 07:24:53;;;;;;;24.90;13.65;;;1.70;99.90;;;;;;6186018;23;20013;-86
2023/03/10 07:27:19;;;;;;;26.95;13.77;;;1.70;99.90;;;;;;6184015;23;20036;-86
2023/03/10 07:29:45;;;;;;;27.50;15.18;;;1.70;99.90;;;;;;6211213;23;20505;-87
2023/03/10 07:32:10;;;;;;;27.88;14.88;;;1.70;99.90;;;;;;6159310;23;20012;-86
2023/03/10 07:34:36;;;;;;;28.00;15.77;;;1.70;99.90;;;;;;6182835;23;20008;-86
2023/03/10 07:37:02;;;;;;;26.33;13.57;;;1.70;99.90;;;;;;6211096;23;20480;-87
2023/03/10 07:39:27;;;;;;;24.75;12.52;;;1.70;99.90;;;;;;6183340;23;20419;-86
2023/03/10 07:41:53;;;;;;;24.40;12.55;;;1.70;99.90;;;;;;6182381;23;20020;-87
2023/03/10 07:44:19;;;;;;;25.48;13.95;;;1.70;99.90;;;;;;6210330;23;20574;-85
2023/03/10 07:46:44;;;;;;;25.45;12.88;;;1.70;99.90;;;;;;6210494;23;20008;-83
2023/03/10 07:49:10;;;;;;;22.30;11.35;;;1.70;99.90;;;;;;6181738;23;20426;-86
2023/03/10 07:51:36;;;;;;;25.77;14.07;;;1.70;99.90;;;;;;6182694;23;20059;-87
2023/03/10 07:54:02;;;;;;;27.02;14.32;;;1.70;99.90;;;;;;6211315;23;20012;-87
2023/03/10 07:56:28;;;;;;;24.75;13.82;;;1.70;99.90;;;;;;6208339;23;20025;-89
2023/03/10 07:58:54;;;;;;;21.52;10.77;;;1.70;99.90;;;;;;6209466;23;20012;-88
2023/03/10 08:01:20;;;;;;;24.25;11.82;;;1.70;99.90;;;;;;6208533;23;20366;-87
2023/03/10 08:03:47;;;;;;;25.98;13.07;;;1.70;99.90;;;;;;6182897;23;20020;-87
2023/03/10 08:06:24;;;;;;;21.45;11.10;;;1.70;99.90;;;;;;6183889;23;20020;-87
2023/03/10 08:08:51;;;;;;;22.05;12.70;;;1.80;99.90;;;;;;6210434;23;20044;-86
2023/03/10 08:11:17;;;;;;;23.55;11.80;;;1.80;99.90;;;;;;6159101;23;20040;-87
2023/03/10 08:13:46;;;;;;;23.02;11.18;;;1.80;99.90;;;;;;6211210;23;20323;-86
2023/03/10 08:16:14;;;;;;;21.25;11.50;;;1.80;99.90;;;;;;6183202;23;20017;-87
2023/03/10 08:18:39;;;;;;;22.95;11.77;;;1.80;99.90;;;;;;6183313;23;20025;-85
2023/03/10 08:21:06;;;;;;;21.90;11.02;;;1.90;99.90;;;;;;6183723;23;20059;-85
2023/03/10 08:23:33;;;;;;;23.33;11.15;;;1.90;99.90;;;;;;6182438;23;20410;-87
2023/03/10 08:26:00;;;;;;;19.25;11.13;;;1.90;99.90;;;;;;6184610;23;20047;-86
2023/03/10 08:28:27;;;;;;;22.13;11.68;;;1.90;99.90;;;;;;6211642;23;20087;-86
2023/03/10 08:30:53;;;;;;;22.92;12.70;;;1.90;99.90;;;;;;6183463;23;20016;-87
2023/03/10 08:33:20;;;;;;;21.92;12.40;;;2.00;99.90;;;;;;6184641;23;20023;-90
2023/03/10 08:35:46;;;;;;;20.30;11.60;;;2.00;99.90;;;;;;6211035;23;20092;-87
2023/03/10 08:38:12;;;;;;;21.92;11.15;;;2.00;99.90;;;;;;6184558;23;20070;-87
2023/03/10 08:40:38;;;;;;;21.58;11.18;;;2.00;99.90;;;;;;6210520;23;20437;-87
2023/03/10 08:43:05;;;;;;;21.73;12.38;;;2.00;99.90;;;;;;6212107;23;20338;-86
2023/03/10 08:45:31;;;;;;;21.65;12.63;;;2.00;99.90;;;;;;6157912;23;20020;-87
2023/03/10 08:47:56;;;;;;;19.65;11.38;;;2.00;99.90;;;;;;6212549;23;20331;-87
2023/03/10 08:50:22;;;;;;;21.05;11.15;;;2.00;99.90;;;;;;6212361;23;20461;-86
2023/03/10 08:52:48;;;;;;;21.83;12.18;;;2.00;99.90;;;;;;6213466;23;20096;-87
2023/03/10 08:55:14;;;;;;;21.40;11.25;;;2.00;99.90;;;;;;6185795;23;20096;-91
2023/03/10 08:57:40;;;;;;;21.52;11.25;;;2.00;99.90;;;;;;6185770;23;20017;-88
2023/03/10 09:00:06;;;;;;;19.08;10.35;;;2.00;99.90;;;;;;6185137;23;20023;-94
2023/03/10 09:02:32;;;;;;;20.70;11.23;;;2.00;99.90;;;;;;6189764;23;20036;-91
2023/03/10 09:04:58;;;;;;;20.50;11.75;;;2.00;99.90;;;;;;6188107;23;20013;-92
2023/03/10 09:07:24;;;;;;;22.10;11.93;;;2.00;99.90;;;;;;6186141;23;20492;-89
2023/03/10 09:09:50;;;;;;;21.88;11.60;;;2.00;99.90;;;;;;6213491;23;20019;-91
2023/03/10 09:12:15;;;;;;;20.80;11.88;;;2.00;99.90;;;;;;6185062;23;20091;-90
2023/03/10 09:14:41;;;;;;;21.85;11.85;;;2.10;99.90;;;;;;6185153;23;20464;-90
2023/03/10 09:17:07;;;;;;;20.70;12.52;;;2.10;99.90;;;;;;6187565;23;20430;-91
2023/03/10 09:19:32;;;;;;;22.40;10.85;;;2.10;99.90;;;;;;6213020;23;20092;-90
2023/03/10 09:21:59;;;;;;;20.05;12.82;;;2.10;99.90;;;;;;6160746;23;20024;-90
2023/03/10 09:24:24;;;;;;;21.17;11.38;;;2.10;99.90;;;;;;6160167;23;20028;-91
2023/03/10 09:26:50;;;;;;;23.85;12.88;;;2.10;99.90;;;;;;6188231;23;20016;-88
2023/03/10 09:29:16;;;;;;;20.80;12.55;;;2.10;99.90;;;;;;6185074;23;20020;-90
2023/03/10 09:31:42;;;;;;;20.80;11.68;;;2.10;99.90;;;;;;6185998;23;20008;-89
2023/03/10 09:34:10;;;;;;;21.75;11.45;;;2.10;99.90;;;;;;6186036;23;20067;-88
2023/03/10 09:36:37;;;;;;;20.38;10.98;;;2.00;99.90;;;;;;6186185;23;20016;-92
2023/03/10 09:39:03;;;;;;;21.20;12.02;;;2.00;99.90;;;;;;6210588;23;20052;-88
2023/03/10 09:41:40;;;;;;;22.48;12.23;;;2.00;99.90;;;;;;6212441;23;20013;-89
2023/03/10 09:44:23;;;;;;;22.65;13.00;;;2.00;99.90;;;;;;6186394;23;20067;-87
2023/03/10 09:47:01;;;;;;;22.17;13.23;;;2.00;99.90;;;;;;6213152;23;20489;-86
2023/03/10 09:49:38;;;;;;;22.02;11.95;;;2.00;99.90;;;;;;6184660;23;20013;-88
2023/03/10 09:52:33;;;;;;;20.38;12.05;;;2.00;99.90;;;;;;6186614;23;20019;-90
2023/03/10 09:55:05;;;;;;;19.77;10.60;;;2.00;99.90;;;;;;6210270;23;20017;-86
2023/03/10 09:57:32;;;;;;;20.17;11.45;;;2.00;99.90;;;;;;6184672;23;20028;-85
2023/03/10 10:00:03;;;;;;;20.40;11.07;;;2.10;99.90;;;;;;6185174;23;20042;-86
2023/03/10 10:02:40;;;;;;;19.98;11.93;;;2.10;99.90;;;;;;6212235;23;20008;-87
2023/03/10 10:05:14;;;;;;;22.42;12.30;;;2.10;99.90;;;;;;6212803;23;20075;-87
2023/03/10 10:07:44;;;;;;;22.42;11.63;;;2.20;99.90;;;;;;6185891;23;20009;-86
2023/03/10 10:10:19;;;;;;;23.05;13.32;;;2.20;99.90;;;;;;6213129;23;20020;-87
2023/03/10 10:12:48;;;;;;;21.83;12.57;;;2.20;99.90;;;;;;6211238;23;20009;-85
2023/03/10 10:15:17;;;;;;;22.23;12.68;;;2.20;99.90;;;;;;6211283;23;20019;-91
2023/03/10 10:18:13;;;;;;;21.17;10.82;;;2.20;99.90;;;;;;6208138;23;20008;-87
2023/03/10 10:20:49;;;;;;;21.40;13.00;;;2.20;99.90;;;;;;6210501;23;20019;-87
2023/03/10 10:23:32;;;;;;;20.80;11.40;;;2.20;99.90;;;;;;6158581;23;20047;-88
2023/03/10 10:26:07;;;;;;;21.52;10.98;;;2.20;99.90;;;;;;6212456;23;20012;-87
2023/03/10 10:28:41;;;;;;;21.00;12.18;;;2.20;99.90;;;;;;6211144;23;20008;-87
2023/03/10 10:31:20;;;;;;;22.05;13.02;;;2.20;99.90;;;;;;6209227;23;20016;-86
2023/03/10 10:33:57;;;;;;;20.38;10.88;;;2.20;99.90;;;;;;6185602;23;20063;-89
2023/03/10 10:36:28;;;;;;;20.83;11.93;;;2.20;99.90;;;;;;6209732;23;20212;-90
2023/03/10 10:38:55;;;;;;;22.13;11.45;;;2.20;99.90;;;;;;6211890;23;20095;-87
2023/03/10 10:41:28;;;;;;;21.52;12.10;;;2.20;99.90;;;;;;6186086;23;20020;-91
2023/03/10 10:44:05;;;;;;;22.23;11.57;;;2.20;99.90;;;;;;6186526;23;20095;-89
2023/03/10 10:46:31;;;;;;;20.90;12.23;;;2.20;99.90;;;;;;6160922;23;20402;-91
2023/03/10 10:49:24;;;;;;;21.58;11.38;;;2.20;99.90;;;;;;6187111;23;20019;-91
2023/03/10 10:52:03;;;;;;;19.80;10.10;;;2.20;99.90;;;;;;6189633;23;20354;-89
2023/03/10 10:54:41;;;;;;;20.45;10.82;;;2.20;99.90;;;;;;6186983;23;20013;-93
2023/03/10 10:57:19;;;;;;;22.17;12.07;;;2.10;99.90;;;;;;6188157;23;20013;-90
2023/03/10 10:59:45;;;;;;;20.58;11.23;;;2.20;99.90;;;;;;6186844;23;20020;-91
2023/03/10 11:02:21;;;;;;;21.98;12.70;;;2.10;99.90;;;;;;6214431;23;20013;-89
2023/03/10 11:04:47;;;;;;;22.58;13.10;;;2.10;99.90;;;;;;6211963;23;20009;-90
2023/03/10 11:07:18;;;;;;;21.40;12.75;;;2.10;99.90;;;;;;6184461;23;20107;-88
2023/03/10 11:09:46;;;;;;;23.35;12.95;;;2.10;99.90;;;;;;6185866;23;20020;-88
2023/03/10 11:12:20;;;;;;;20.13;11.23;;;2.10;99.90;;;;;;6208759;23;20063;-90
2023/03/10 11:15:01;;;;;;;23.80;12.15;;;2.10;99.90;;;;;;6185775;23;20016;-86
2023/03/10 11:17:27;;;;;;;23.77;14.13;;;2.10;99.90;;;;;;6209881;23;20021;-85
2023/03/10 11:20:03;;;;;;;22.80;11.93;;;2.10;99.90;;;;;;6183349;23;20017;-89
2023/03/10 11:22:46;;;;;;;25.95;13.38;;;2.10;99.90;;;;;;6184031;23;20493;-88
2023/03/10 11:25:39;;;;;;;23.20;11.75;;;2.20;99.90;;;;;;6161709;23;20013;-88
2023/03/10 11:28:32;;;;;;;23.58;12.23;;;2.10;99.90;;;;;;6209987;23;20079;-89
2023/03/10 11:31:16;;;;;;;22.67;12.68;;;2.20;99.90;;;;;;6184450;23;20025;-92
2023/03/10 11:34:19;;;;;;;23.73;11.63;;;2.20;99.90;;;;;;6184567;23;20445;-90
2023/03/10 11:37:13;;;;;;;22.67;14.07;;;2.20;99.90;;;;;;6160389;23;20017;-84
2023/03/10 11:39:56;;;;;;;21.85;12.57;;;2.20;99.90;;;;;;6184827;23;20075;-86
2023/03/10 11:42:33;;;;;;;22.90;12.55;;;2.10;99.90;;;;;;6210608;23;20013;-87
2023/03/10 11:45:16;;;;;;;22.42;11.45;;;2.10;99.90;;;;;;6184588;23;20013;-88
2023/03/10 11:48:02;;;;;;;21.60;11.85;;;2.10;99.90;;;;;;6184744;23;20013;-86
2023/03/10 11:50:53;;;;;;;22.63;11.65;;;2.10;99.90;;;;;;6184045;23;20016;-83
2023/03/10 11:53:31;;;;;;;22.33;11.18;;;2.10;99.90;;;;;;6208750;23;20458;-88
2023/03/10 11:55:59;;;;;;;22.67;13.07;;;2.10;99.90;;;;;;6211307;23;20027;-85
2023/03/10 11:58:48;;;;;;;22.67;12.88;;;2.10;99.90;;;;;;6212176;23;20342;-87
2023/03/10 12:01:37;;;;;;;20.67;12.00;;;2.10;99.90;;;;;;6195816;23;20020;-88
2023/03/10 12:04:11;;;;;;;22.73;12.15;;;2.10;99.90;;;;;;6183711;23;20438;-91
2023/03/10 12:07:02;;;;;;;23.80;12.23;;;2.10;99.90;;;;;;6212023;23;20028;-90
2023/03/10 12:09:53;;;;;;;22.05;12.68;;;2.00;99.90;;;;;;6211816;23;20048;-89
2023/03/10 12:12:27;;;;;;;21.07;11.40;;;2.10;99.90;;;;;;6185290;23;20048;-90
2023/03/10 12:14:55;;;;;;;20.90;10.82;;;2.00;99.90;;;;;;6212546;23;20068;-91
2023/03/10 12:17:21;;;;;;;22.90;12.13;;;2.00;99.90;;;;;;6212237;23;20013;-91
2023/03/10 12:20:10;;;;;;;21.88;11.90;;;2.00;99.90;;;;;;6160314;23;20017;-91
2023/03/10 12:22:49;;;;;;;19.85;11.10;;;2.10;99.90;;;;;;6163254;23;20017;-90
2023/03/10 12:25:31;;;;;;;20.50;10.88;;;2.10;99.90;;;;;;6187746;23;20020;-91
2023/03/10 12:28:15;;;;;;;19.17;10.25;;;2.10;99.90;;;;;;6188491;23;20012;-90
2023/03/10 12:30:50;;;;;;;20.17;10.32;;;2.20;99.90;;;;;;6187529;23;20539;-90
2023/03/10 12:36:15;;;;;;;19.60;10.27;;;2.20;99.90;;;;;;6187930;23;20024;-90
2023/03/10 12:38:52;;;;;;;18.67;10.20;;;2.20;99.90;;;;;;6213886;23;20020;-91
2023/03/10 12:41:27;;;;;;;18.48;9.70;;;2.20;99.90;;;;;;6214365;23;20009;-89
2023/03/10 12:43:55;;;;;;;19.40;10.88;;;2.20;99.90;;;;;;6188251;23;20024;-91
2023/03/10 12:46:46;;;;;;;20.85;10.73;;;2.20;99.90;;;;;;6163962;23;20338;-92
2023/03/10 12:49:26;;;;;;;20.88;9.95;;;2.20;99.90;;;;;;6162073;23;20031;-91
2023/03/10 12:52:13;;;;;;;19.90;11.00;;;2.20;99.90;;;;;;6163387;23;20023;-93
2023/03/10 12:55:03;;;;;;;20.58;11.18;;;2.20;99.90;;;;;;6162810;23;20367;-88